createdAt,value
2018-05-12T00:02:27.195Z,16.93
2018-05-12T00:04:54.583Z,16.87
2018-05-12T00:07:22.057Z,16.84
2018-05-12T00:09:49.496Z,16.78
2018-05-12T00:14:50.644Z,16.57
2018-05-12T00:17:18.115Z,16.55
2018-05-12T00:19:45.504Z,16.49
2018-05-12T00:22:12.904Z,16.43
2018-05-12T00:24:40.377Z,16.40
2018-05-12T00:27:07.837Z,16.38
2018-05-12T00:29:35.299Z,16.36
2018-05-12T00:32:02.757Z,16.34
2018-05-12T00:34:30.307Z,16.41
2018-05-12T00:37:00.353Z,16.48
2018-05-12T00:39:27.779Z,16.49
2018-05-12T00:41:55.273Z,16.43
2018-05-12T00:44:22.696Z,16.31
2018-05-12T00:46:50.155Z,16.28
2018-05-12T00:49:17.610Z,16.28
2018-05-12T00:51:45.024Z,16.22
2018-05-12T00:54:12.480Z,16.24
2018-05-12T00:56:39.909Z,16.22
2018-05-12T00:59:08.011Z,16.30
2018-05-12T01:01:35.451Z,16.33
2018-05-12T01:04:02.921Z,16.22
2018-05-12T01:06:30.323Z,16.07
2018-05-12T01:08:57.785Z,15.91
2018-05-12T01:11:25.186Z,16.05
2018-05-12T01:13:52.646Z,16.10
2018-05-12T01:16:20.067Z,16.05
2018-05-12T01:18:47.498Z,15.92
2018-05-12T01:21:14.932Z,15.98
2018-05-12T01:23:42.389Z,16.15
2018-05-12T01:26:09.861Z,16.23
2018-05-12T01:28:37.306Z,16.18
2018-05-12T01:31:04.707Z,16.11
2018-05-12T01:33:32.164Z,16.12
2018-05-12T01:35:59.584Z,16.23
2018-05-12T01:38:27.067Z,16.33
2018-05-12T01:40:54.525Z,16.40
2018-05-12T01:43:21.989Z,16.39
2018-05-12T01:45:55.301Z,16.40
2018-05-12T01:48:22.764Z,16.39
2018-05-12T01:50:50.172Z,16.37
2018-05-12T01:53:19.056Z,16.38
2018-05-12T01:55:46.484Z,16.41
2018-05-12T01:58:14.759Z,16.43
2018-05-12T02:00:42.189Z,16.30
2018-05-12T02:03:09.643Z,16.23
2018-05-12T02:05:37.109Z,16.17
2018-05-12T02:08:05.472Z,16.18
2018-05-12T02:10:32.896Z,16.26
2018-05-12T02:13:00.368Z,16.29
2018-05-12T02:15:27.809Z,16.36
2018-05-12T02:17:55.232Z,16.38
2018-05-12T02:20:22.693Z,16.34
2018-05-12T02:22:50.690Z,16.30
2018-05-12T02:25:18.133Z,16.28
2018-05-12T02:27:45.571Z,16.24
2018-05-12T02:30:13.105Z,16.19
2018-05-12T02:32:40.563Z,16.16
2018-05-12T02:35:07.949Z,16.11
2018-05-12T02:37:35.420Z,16.10
2018-05-12T02:40:02.857Z,16.08
2018-05-12T02:42:30.294Z,16.08
2018-05-12T02:44:57.735Z,16.12
2018-05-12T02:47:25.301Z,16.06
2018-05-12T02:49:56.387Z,16.06
2018-05-12T02:52:23.817Z,16.07
2018-05-12T02:54:51.256Z,16.03
2018-05-12T02:57:18.727Z,16.01
2018-05-12T02:59:46.177Z,15.98
2018-05-12T03:02:13.632Z,15.94
2018-05-12T03:04:41.881Z,15.88
2018-05-12T03:07:09.347Z,15.87
2018-05-12T03:09:36.813Z,15.83
2018-05-12T03:12:05.345Z,15.67
2018-05-12T03:14:32.826Z,15.56
2018-05-12T03:17:00.291Z,15.57
2018-05-12T03:19:27.741Z,15.62
2018-05-12T03:21:55.172Z,15.68
2018-05-12T03:24:22.595Z,15.68
2018-05-12T03:26:49.989Z,15.68
2018-05-12T03:29:18.137Z,15.67
2018-05-12T03:31:45.593Z,15.67
2018-05-12T03:34:14.599Z,15.56
2018-05-12T03:36:42.508Z,15.54
2018-05-12T03:39:09.968Z,15.52
2018-05-12T03:41:37.388Z,15.52
2018-05-12T03:44:04.822Z,15.44
2018-05-12T03:46:32.258Z,15.39
2018-05-12T03:48:59.702Z,15.30
2018-05-12T03:51:27.093Z,15.22
2018-05-12T03:53:54.552Z,15.10
2018-05-12T03:56:21.999Z,15.15
2018-05-12T03:58:49.457Z,15.25
2018-05-12T04:01:16.915Z,15.32
2018-05-12T04:03:45.481Z,15.38
2018-05-12T04:06:24.923Z,15.43
2018-05-12T04:09:04.131Z,15.40
2018-05-12T04:11:43.288Z,15.34
2018-05-12T04:14:10.771Z,15.32
2018-05-12T04:16:38.488Z,15.26
2018-05-12T04:19:05.966Z,15.29
2018-05-12T04:21:33.417Z,15.29
2018-05-12T04:24:00.823Z,15.26
2018-05-12T04:26:28.293Z,15.22
2018-05-12T04:28:55.765Z,15.22
2018-05-12T04:31:23.258Z,15.30
2018-05-12T04:33:50.689Z,15.47
2018-05-12T04:36:18.169Z,15.48
2018-05-12T04:38:45.615Z,15.39
2018-05-12T04:41:13.072Z,15.36
2018-05-12T04:43:40.471Z,15.48
2018-05-12T04:46:08.099Z,15.61
2018-05-12T04:48:38.292Z,15.73
2018-05-12T04:51:05.694Z,15.78
2018-05-12T04:53:33.153Z,15.81
2018-05-12T04:56:00.593Z,15.82
2018-05-12T04:58:28.067Z,15.96
2018-05-12T05:00:55.541Z,16.14
2018-05-12T05:03:22.964Z,16.23
2018-05-12T05:05:50.408Z,16.26
2018-05-12T05:08:19.541Z,16.28
2018-05-12T05:10:46.987Z,16.36
2018-05-12T05:13:14.420Z,16.53
2018-05-12T05:15:41.839Z,16.67
2018-05-12T05:18:09.308Z,16.82
2018-05-12T05:20:36.744Z,16.88
2018-05-12T05:23:04.214Z,16.96
2018-05-12T05:25:32.538Z,17.07
2018-05-12T05:27:59.956Z,17.26
2018-05-12T05:30:27.391Z,17.42
2018-05-12T05:32:55.560Z,17.47
2018-05-12T05:35:22.946Z,17.53
2018-05-12T05:37:50.537Z,17.65
2018-05-12T05:40:17.943Z,17.81
2018-05-12T05:42:45.455Z,17.94
2018-05-12T05:45:12.874Z,18.07
2018-05-12T05:47:40.297Z,18.08
2018-05-12T05:50:07.765Z,18.04
2018-05-12T05:52:35.214Z,18.23
2018-05-12T05:55:03.467Z,18.38
2018-05-12T05:57:30.850Z,18.60
2018-05-12T05:59:58.251Z,18.67
2018-05-12T06:02:25.637Z,18.74
2018-05-12T06:04:53.548Z,18.81
2018-05-12T06:07:20.984Z,18.93
2018-05-12T06:09:48.401Z,18.91
2018-05-12T06:12:15.836Z,19.04
2018-05-12T06:14:43.264Z,19.17
2018-05-12T06:17:10.694Z,18.92
2018-05-12T06:19:38.115Z,19.16
2018-05-12T06:22:05.579Z,19.27
2018-05-12T06:24:32.983Z,19.25
2018-05-12T06:27:00.407Z,19.20
2018-05-12T06:29:27.862Z,19.17
2018-05-12T06:31:56.216Z,19.10
2018-05-12T06:34:24.541Z,19.05
2018-05-12T06:36:52.032Z,19.11
2018-05-12T06:39:19.411Z,18.98
2018-05-12T06:41:46.799Z,19.14
2018-05-12T06:44:14.203Z,19.39
2018-05-12T06:46:41.638Z,19.39
2018-05-12T06:49:09.996Z,19.56
2018-05-12T06:51:37.398Z,19.82
2018-05-12T06:54:05.618Z,19.72
2018-05-12T06:56:33.017Z,19.77
2018-05-12T06:59:00.489Z,20.04
2018-05-12T07:01:27.944Z,20.35
2018-05-12T07:03:55.397Z,20.59
2018-05-12T07:06:22.829Z,20.33
2018-05-12T07:08:50.232Z,20.49
2018-05-12T07:11:17.697Z,20.83
2018-05-12T07:13:45.173Z,20.90
2018-05-12T07:16:12.648Z,20.67
2018-05-12T07:18:40.088Z,20.65
2018-05-12T07:21:07.472Z,20.83
2018-05-12T07:23:34.887Z,21.22
2018-05-12T07:26:02.285Z,21.62
2018-05-12T07:28:29.749Z,21.74
2018-05-12T07:30:57.212Z,22.00
2018-05-12T07:33:24.610Z,22.08
2018-05-12T07:35:52.454Z,21.99
2018-05-12T07:38:20.131Z,22.05
2018-05-12T07:40:47.601Z,22.23
2018-05-12T07:43:15.041Z,22.09
2018-05-12T07:45:43.227Z,22.04
2018-05-12T07:48:10.638Z,22.17
2018-05-12T07:50:38.076Z,22.26
2018-05-12T07:53:05.541Z,22.43
2018-05-12T07:55:32.932Z,22.62
2018-05-12T07:58:00.411Z,22.91
2018-05-12T08:00:28.357Z,23.45
2018-05-12T08:02:55.763Z,23.62
2018-05-12T08:05:23.995Z,23.49
2018-05-12T08:07:51.412Z,23.55
2018-05-12T08:10:18.851Z,23.52
2018-05-12T08:12:46.315Z,23.54
2018-05-12T08:15:13.727Z,23.86
2018-05-12T08:17:41.196Z,24.01
2018-05-12T08:20:08.679Z,23.87
2018-05-12T08:22:36.121Z,23.95
2018-05-12T08:25:03.625Z,24.07
2018-05-12T08:27:31.117Z,24.46
2018-05-12T08:29:58.538Z,24.92
2018-05-12T08:32:25.976Z,24.36
2018-05-12T08:34:53.376Z,24.06
2018-05-12T08:37:20.848Z,24.21
2018-05-12T08:39:48.306Z,24.16
2018-05-12T08:42:17.866Z,24.52
2018-05-12T08:44:45.277Z,24.84
2018-05-12T08:47:12.735Z,24.76
2018-05-12T08:49:40.192Z,24.61
2018-05-12T08:52:07.875Z,24.08
2018-05-12T08:54:35.289Z,24.38
2018-05-12T08:57:02.719Z,24.34
2018-05-12T08:59:30.224Z,23.65
2018-05-12T09:01:58.847Z,23.48
2018-05-12T09:04:26.299Z,23.53
2018-05-12T09:06:53.704Z,23.50
2018-05-12T09:09:21.104Z,23.47
2018-05-12T09:11:48.759Z,23.55
2018-05-12T09:14:16.203Z,23.70
2018-05-12T09:16:43.639Z,23.51
2018-05-12T09:19:11.187Z,23.23
2018-05-12T09:21:38.614Z,23.72
2018-05-12T09:24:06.048Z,24.08
2018-05-12T09:26:34.372Z,24.08
2018-05-12T09:29:01.811Z,24.11
2018-05-12T09:31:29.293Z,23.90
2018-05-12T09:33:56.791Z,24.03
2018-05-12T09:36:24.280Z,24.29
2018-05-12T09:41:25.674Z,24.50
2018-05-12T09:43:53.124Z,24.76
2018-05-12T09:46:20.561Z,24.85
2018-05-12T09:48:48.005Z,24.93
2018-05-12T09:51:15.509Z,24.79
2018-05-12T09:53:42.983Z,24.75
2018-05-12T09:56:10.403Z,24.52
2018-05-12T09:58:38.406Z,24.35
2018-05-12T10:01:05.841Z,24.37
2018-05-12T10:03:33.374Z,24.50
2018-05-12T10:06:00.832Z,24.57
2018-05-12T10:08:29.203Z,24.55
2018-05-12T10:10:56.639Z,24.75
2018-05-12T10:13:24.038Z,24.97
2018-05-12T10:15:51.468Z,25.03
2018-05-12T10:18:37.788Z,24.91
2018-05-12T10:21:05.236Z,24.96
2018-05-12T10:23:32.741Z,25.50
2018-05-12T10:26:00.224Z,25.44
2018-05-12T10:28:27.673Z,25.48
2018-05-12T10:30:55.058Z,25.65
2018-05-12T10:33:22.613Z,25.61
2018-05-12T10:35:50.034Z,25.68
2018-05-12T10:38:17.476Z,25.85
2018-05-12T10:40:48.792Z,25.80
2018-05-12T10:43:16.195Z,25.85
2018-05-12T10:45:43.600Z,25.78
2018-05-12T10:48:11.074Z,25.85
2018-05-12T10:50:38.495Z,25.90
2018-05-12T10:53:05.938Z,25.89
2018-05-12T10:55:35.416Z,26.12
2018-05-12T10:58:02.856Z,26.21
2018-05-12T11:00:30.313Z,26.00
2018-05-12T11:03:00.011Z,26.06
2018-05-12T11:05:27.459Z,26.11
2018-05-12T11:07:54.922Z,26.03
2018-05-12T11:10:22.388Z,26.03
2018-05-12T11:12:49.839Z,26.29
2018-05-12T11:15:18.009Z,26.32
2018-05-12T11:17:45.405Z,26.60
2018-05-12T11:20:13.056Z,26.43
2018-05-12T11:22:40.489Z,26.21
2018-05-12T11:25:07.951Z,26.23
2018-05-12T11:27:34.953Z,26.31
2018-05-12T11:30:02.518Z,26.35
2018-05-12T11:32:31.199Z,26.61
2018-05-12T11:34:59.236Z,26.55
2018-05-12T11:37:27.392Z,26.25
2018-05-12T11:39:55.057Z,26.52
2018-05-12T11:42:22.051Z,26.40
2018-05-12T11:44:50.138Z,26.46
2018-05-12T11:47:17.196Z,26.49
2018-05-12T11:49:47.001Z,26.60
2018-05-12T11:52:14.378Z,26.61
2018-05-12T11:54:41.448Z,26.62
2018-05-12T11:57:08.439Z,26.97
2018-05-12T11:59:35.826Z,27.42
2018-05-12T12:02:03.282Z,27.69
2018-05-12T12:04:30.753Z,27.44
2018-05-12T12:06:58.337Z,27.30
2018-05-12T12:09:25.803Z,27.29
2018-05-12T12:11:53.226Z,27.07
2018-05-12T12:14:20.766Z,27.20
2018-05-12T12:16:49.222Z,27.44
2018-05-12T12:19:16.608Z,27.67
2018-05-12T12:21:44.046Z,27.55
2018-05-12T12:24:11.507Z,27.83
2018-05-12T12:26:38.980Z,28.04
2018-05-12T12:29:06.423Z,28.01
2018-05-12T12:31:33.807Z,27.82
2018-05-12T12:34:01.275Z,27.32
2018-05-12T12:36:29.478Z,27.22
2018-05-12T12:38:58.844Z,27.17
2018-05-12T12:41:26.238Z,27.21
2018-05-12T12:43:53.727Z,26.98
2018-05-12T12:46:23.398Z,26.89
2018-05-12T12:48:51.995Z,27.03
2018-05-12T12:51:20.682Z,27.19
2018-05-12T12:53:48.484Z,27.28
2018-05-12T12:56:16.882Z,27.36
2018-05-12T12:58:44.358Z,27.47
2018-05-12T13:01:11.758Z,27.18
2018-05-12T13:03:39.979Z,26.94
2018-05-12T13:06:07.370Z,26.78
2018-05-12T13:08:34.813Z,26.73
2018-05-12T13:11:02.243Z,26.89
2018-05-12T13:13:29.669Z,27.18
2018-05-12T13:15:57.116Z,27.61
2018-05-12T13:18:24.517Z,27.59
2018-05-12T13:20:52.030Z,27.68
2018-05-12T13:23:19.471Z,28.10
2018-05-12T13:25:46.913Z,28.38
2018-05-12T13:28:14.325Z,28.42
2018-05-12T13:30:41.836Z,28.34
2018-05-12T13:33:09.495Z,28.39
2018-05-12T13:35:36.952Z,28.78
2018-05-12T13:38:04.373Z,28.64
2018-05-12T13:40:32.546Z,28.92
2018-05-12T13:43:00.057Z,28.96
2018-05-12T13:45:28.228Z,28.88
2018-05-12T13:47:56.012Z,29.05
2018-05-12T13:50:23.481Z,28.78
2018-05-12T13:52:51.259Z,28.64
2018-05-12T13:55:20.378Z,28.03
2018-05-12T13:57:47.832Z,27.89
2018-05-12T14:00:15.300Z,27.60
2018-05-12T14:02:42.793Z,27.62
2018-05-12T14:05:10.261Z,27.83
2018-05-12T14:07:38.071Z,27.67
2018-05-12T14:10:05.039Z,27.83
2018-05-12T14:12:32.513Z,27.80
2018-05-12T14:15:00.078Z,27.67
2018-05-12T14:17:27.504Z,27.74
2018-05-12T14:19:54.910Z,27.88
2018-05-12T14:22:22.305Z,28.17
2018-05-12T14:24:49.708Z,28.17
2018-05-12T14:27:17.144Z,28.29
2018-05-12T14:29:44.530Z,28.40
2018-05-12T14:32:11.983Z,28.71
2018-05-12T14:34:39.523Z,28.40
2018-05-12T14:37:06.488Z,28.20
2018-05-12T14:39:33.939Z,28.37
2018-05-12T14:42:02.137Z,28.49
2018-05-12T14:44:29.547Z,28.63
2018-05-12T14:46:57.905Z,28.60
2018-05-12T14:49:25.372Z,28.53
2018-05-12T14:51:52.791Z,28.53
2018-05-12T14:54:20.195Z,28.68
2018-05-12T14:56:47.719Z,28.93
2018-05-12T14:59:15.250Z,29.05
2018-05-12T15:01:42.992Z,28.83
2018-05-12T15:04:10.387Z,28.77
2018-05-12T15:06:37.851Z,28.58
2018-05-12T15:09:05.367Z,28.45
2018-05-12T15:11:32.883Z,28.15
2018-05-12T15:14:00.702Z,27.63
2018-05-12T15:16:28.136Z,27.40
2018-05-12T15:18:55.572Z,27.23
2018-05-12T15:21:23.005Z,27.30
2018-05-12T15:23:50.446Z,27.32
2018-05-12T15:26:17.886Z,27.13
2018-05-12T15:28:45.339Z,27.17
2018-05-12T15:31:16.354Z,27.45
2018-05-12T15:33:43.854Z,27.55
2018-05-12T15:36:11.401Z,27.50
2018-05-12T15:38:38.793Z,27.41
2018-05-12T15:41:06.222Z,27.27
2018-05-12T15:43:33.669Z,26.94
2018-05-12T15:46:01.151Z,26.78
2018-05-12T15:48:28.575Z,26.77
2018-05-12T15:50:56.013Z,26.76
2018-05-12T15:53:23.448Z,26.62
2018-05-12T15:55:50.913Z,26.61
2018-05-12T15:58:18.379Z,26.53
2018-05-12T16:00:47.337Z,26.39
2018-05-12T16:03:16.580Z,26.16
2018-05-12T16:05:44.007Z,25.94
2018-05-12T16:08:12.041Z,25.91
2018-05-12T16:10:39.459Z,25.74
2018-05-12T16:13:06.843Z,25.63
2018-05-12T16:15:35.136Z,25.55
2018-05-12T16:18:02.123Z,25.58
2018-05-12T16:20:29.170Z,25.53
2018-05-12T16:22:56.558Z,25.55
2018-05-12T16:25:24.010Z,25.44
2018-05-12T16:27:51.408Z,25.47
2018-05-12T16:30:18.807Z,25.47
2018-05-12T16:32:46.240Z,25.50
2018-05-12T16:35:13.675Z,25.49
2018-05-12T16:37:40.657Z,25.43
2018-05-12T16:40:07.649Z,25.40
2018-05-12T16:42:34.624Z,25.30
2018-05-12T16:45:02.016Z,25.29
2018-05-12T16:47:29.458Z,25.18
2018-05-12T16:49:56.933Z,25.11
2018-05-12T16:52:24.340Z,25.06
2018-05-12T16:54:52.380Z,24.97
2018-05-12T16:57:19.780Z,24.85
2018-05-12T16:59:47.303Z,24.85
2018-05-12T17:02:14.752Z,24.69
2018-05-12T17:04:42.279Z,24.51
2018-05-12T17:07:09.705Z,24.38
2018-05-12T17:09:37.156Z,24.25
2018-05-12T17:12:04.579Z,24.12
2018-05-12T17:14:32.197Z,24.07
2018-05-12T17:16:59.697Z,24.06
2018-05-12T17:19:27.108Z,24.05
2018-05-12T17:21:54.637Z,23.96
2018-05-12T17:24:22.036Z,23.92
2018-05-12T17:26:53.192Z,23.94
2018-05-12T17:29:21.851Z,23.87
2018-05-12T17:31:50.453Z,23.83
2018-05-12T17:34:18.989Z,23.80
2018-05-12T17:36:46.463Z,23.77
2018-05-12T17:39:13.884Z,23.70
2018-05-12T17:41:41.452Z,23.62
2018-05-12T17:44:08.874Z,23.59
2018-05-12T17:46:40.033Z,23.53
2018-05-12T17:49:07.799Z,23.39
2018-05-12T17:51:35.238Z,23.38
2018-05-12T17:54:02.766Z,23.34
2018-05-12T17:56:30.331Z,23.33
2018-05-12T17:58:58.492Z,23.27
2018-05-12T18:01:26.060Z,23.23
2018-05-12T18:03:53.590Z,23.18
2018-05-12T18:06:21.184Z,23.13
2018-05-12T18:08:48.593Z,23.08
2018-05-12T18:11:16.026Z,23.07
2018-05-12T18:13:43.488Z,23.04
2018-05-12T18:16:11.753Z,23.03
2018-05-12T18:18:39.227Z,22.91
2018-05-12T18:21:06.802Z,22.74
2018-05-12T18:23:34.254Z,22.64
2018-05-12T18:26:01.890Z,22.60
2018-05-12T18:28:29.410Z,22.48
2018-05-12T18:30:56.894Z,22.39
2018-05-12T18:33:24.400Z,22.31
2018-05-12T18:35:51.874Z,22.23
2018-05-12T18:38:19.344Z,22.05
2018-05-12T18:40:47.741Z,22.08
2018-05-12T18:43:15.193Z,22.02
2018-05-12T18:45:45.364Z,22.04
2018-05-12T18:48:12.818Z,22.02
2018-05-12T18:50:40.290Z,21.97
2018-05-12T18:53:08.925Z,21.99
2018-05-12T18:55:36.357Z,22.00
2018-05-12T18:58:04.663Z,21.98
2018-05-12T19:00:32.143Z,21.92
2018-05-12T19:03:02.724Z,21.88
2018-05-12T19:05:30.570Z,21.86
2018-05-12T19:07:57.999Z,21.87
2018-05-12T19:10:25.404Z,21.82
2018-05-12T19:12:55.189Z,21.82
2018-05-12T19:15:22.755Z,21.81
2018-05-12T19:17:50.179Z,21.76
2018-05-12T19:20:17.591Z,21.65
2018-05-12T19:22:45.601Z,21.61
2018-05-12T19:25:13.085Z,21.58
2018-05-12T19:27:41.140Z,21.59
2018-05-12T19:30:08.577Z,21.54
2018-05-12T19:32:36.077Z,21.51
2018-05-12T19:35:03.599Z,21.49
2018-05-12T19:37:31.079Z,21.48
2018-05-12T19:39:58.554Z,21.50
2018-05-12T19:42:26.001Z,21.49
2018-05-12T19:44:53.395Z,21.38
2018-05-12T19:47:20.857Z,21.31
2018-05-12T19:49:48.340Z,21.24
2018-05-12T19:52:16.497Z,21.23
2018-05-12T19:54:43.952Z,21.18
2018-05-12T19:57:15.054Z,21.18
2018-05-12T19:59:42.505Z,21.13
2018-05-12T20:02:10.552Z,21.08
2018-05-12T20:04:38.380Z,21.10
2018-05-12T20:07:05.837Z,21.09
2018-05-12T20:09:33.318Z,21.10
2018-05-12T20:12:00.741Z,21.13
2018-05-12T20:14:28.169Z,21.14
2018-05-12T20:16:55.616Z,21.15
2018-05-12T20:19:23.029Z,21.04
2018-05-12T20:21:50.499Z,21.06
2018-05-12T20:24:17.942Z,21.09
2018-05-12T20:26:45.413Z,21.01
2018-05-12T20:29:12.883Z,20.96
2018-05-12T20:31:40.397Z,20.91
2018-05-12T20:34:07.931Z,20.92
2018-05-12T20:36:35.357Z,20.91
2018-05-12T20:39:02.787Z,20.93
2018-05-12T20:41:30.235Z,20.88
2018-05-12T20:43:57.704Z,20.81
2018-05-12T20:46:25.183Z,20.75
2018-05-12T20:48:52.654Z,20.80
2018-05-12T20:51:20.128Z,20.83
2018-05-12T20:53:47.629Z,20.89
2018-05-12T20:56:16.028Z,20.94
2018-05-12T20:58:43.487Z,20.85
2018-05-12T21:01:11.008Z,20.92
2018-05-12T21:03:38.505Z,20.90
2018-05-12T21:06:06.765Z,20.97
2018-05-12T21:08:34.281Z,20.95
2018-05-12T21:11:02.579Z,20.87
2018-05-12T21:13:30.042Z,20.84
2018-05-12T21:15:58.700Z,20.82
2018-05-12T21:18:26.090Z,20.89
2018-05-12T21:20:53.733Z,20.86
2018-05-12T21:23:21.279Z,20.88
2018-05-12T21:25:48.705Z,20.99
2018-05-12T21:28:16.213Z,20.94
2018-05-12T21:30:43.643Z,20.87
2018-05-12T21:33:11.094Z,20.75
2018-05-12T21:35:38.576Z,20.68
2018-05-12T21:38:06.065Z,20.59
2018-05-12T21:40:33.555Z,20.21
2018-05-12T21:43:01.050Z,19.97
2018-05-12T21:45:28.479Z,19.94
2018-05-12T21:47:55.919Z,19.90
2018-05-12T21:50:23.395Z,20.06
2018-05-12T21:52:50.819Z,20.02
2018-05-12T21:55:18.286Z,20.02
2018-05-12T21:57:45.744Z,20.02
2018-05-12T22:00:13.242Z,19.90
2018-05-12T22:02:41.564Z,19.81
2018-05-12T22:05:09.135Z,19.47
2018-05-12T22:07:37.565Z,19.26
2018-05-12T22:10:05.073Z,19.21
2018-05-12T22:12:33.700Z,19.14
2018-05-12T22:15:01.122Z,19.14
2018-05-12T22:17:28.613Z,19.25
2018-05-12T22:19:56.155Z,19.30
2018-05-12T22:22:23.674Z,19.11
2018-05-12T22:24:51.150Z,18.71
2018-05-12T22:27:18.627Z,18.42
2018-05-12T22:29:46.221Z,18.25
2018-05-12T22:32:13.694Z,18.19
2018-05-12T22:34:41.152Z,18.19
2018-05-12T22:37:08.675Z,18.27
2018-05-12T22:39:36.262Z,18.45
2018-05-12T22:42:03.732Z,18.47
2018-05-12T22:44:35.359Z,18.26
2018-05-12T22:47:02.857Z,18.23
2018-05-12T22:49:30.298Z,18.15
2018-05-12T22:51:57.758Z,17.98
2018-05-12T22:54:25.295Z,17.98
2018-05-12T22:56:52.747Z,18.03
2018-05-12T22:59:20.260Z,18.02
2018-05-12T23:01:48.926Z,17.93
2018-05-12T23:04:16.452Z,17.57
2018-05-12T23:06:43.837Z,17.46
2018-05-12T23:09:11.330Z,17.40
2018-05-12T23:11:38.790Z,17.36
2018-05-12T23:14:06.204Z,17.28
2018-05-12T23:16:33.663Z,17.28
2018-05-12T23:19:01.127Z,17.27
2018-05-12T23:21:28.581Z,17.41
2018-05-12T23:23:56.024Z,17.22
2018-05-12T23:26:23.418Z,17.09
2018-05-12T23:28:51.567Z,16.94
2018-05-12T23:31:19.910Z,16.78
2018-05-12T23:33:47.399Z,16.70
2018-05-12T23:36:14.888Z,16.62
2018-05-12T23:38:42.348Z,16.58
2018-05-12T23:41:09.759Z,16.52
2018-05-12T23:43:37.245Z,16.56
2018-05-12T23:46:06.353Z,16.51
2018-05-12T23:48:33.842Z,16.39
2018-05-12T23:51:01.253Z,16.31
2018-05-12T23:53:28.727Z,16.22
2018-05-12T23:55:56.146Z,16.26
2018-05-12T23:58:23.660Z,16.14
